createdAt,value
2018-05-03T00:00:39.246Z,12.50
2018-05-03T00:01:40.068Z,12.46
2018-05-03T00:02:39.237Z,12.49
2018-05-03T00:03:39.252Z,12.42
2018-05-03T00:04:39.235Z,12.47
2018-05-03T00:05:39.238Z,12.37
2018-05-03T00:06:39.257Z,12.37
2018-05-03T00:07:39.251Z,12.39
2018-05-03T00:08:39.941Z,12.39
2018-05-03T00:09:39.382Z,12.42
2018-05-03T00:10:39.220Z,12.35
2018-05-03T00:11:39.247Z,12.36
2018-05-03T00:12:39.228Z,12.36
2018-05-03T00:13:39.239Z,12.39
2018-05-03T00:14:39.940Z,12.35
2018-05-03T00:15:39.225Z,12.31
2018-05-03T00:16:39.229Z,12.35
2018-05-03T00:17:39.231Z,12.29
2018-05-03T00:18:39.244Z,12.32
2018-05-03T00:19:39.277Z,12.29
2018-05-03T00:20:39.954Z,12.29
2018-05-03T00:21:40.002Z,12.29
2018-05-03T00:22:39.203Z,12.28
2018-05-03T00:23:39.958Z,12.37
2018-05-03T00:24:39.213Z,12.29
2018-05-03T00:25:39.211Z,12.35
2018-05-03T00:26:39.958Z,12.36
2018-05-03T00:27:39.216Z,12.35
2018-05-03T00:28:39.949Z,12.36
2018-05-03T00:29:39.193Z,12.24
2018-05-03T00:30:39.282Z,12.39
2018-05-03T00:31:39.271Z,12.32
2018-05-03T00:32:40.014Z,12.24
2018-05-03T00:33:39.203Z,12.35
2018-05-03T00:34:39.245Z,12.36
2018-05-03T00:35:39.186Z,12.21
2018-05-03T00:36:39.187Z,12.28
2018-05-03T00:37:39.180Z,12.22
2018-05-03T00:38:39.197Z,12.21
2018-05-03T00:39:39.223Z,12.22
2018-05-03T00:40:39.186Z,12.22
2018-05-03T00:41:39.185Z,12.18
2018-05-03T00:42:39.247Z,12.20
2018-05-03T00:43:39.967Z,12.21
2018-05-03T00:44:39.197Z,12.18
2018-05-03T00:45:39.240Z,12.17
2018-05-03T00:46:39.194Z,12.15
2018-05-03T00:47:39.169Z,12.18
2018-05-03T00:48:39.969Z,12.24
2018-05-03T00:49:39.186Z,12.24
2018-05-03T00:50:40.008Z,12.17
2018-05-03T00:51:40.495Z,12.17
2018-05-03T00:52:39.258Z,12.22
2018-05-03T00:53:39.151Z,12.17
2018-05-03T00:54:39.172Z,12.24
2018-05-03T00:55:39.155Z,12.25
2018-05-03T00:56:39.226Z,12.22
2018-05-03T00:57:40.447Z,12.21
2018-05-03T00:58:39.168Z,12.29
2018-05-03T00:59:39.157Z,12.32
2018-05-03T01:00:39.150Z,12.35
2018-05-03T01:01:39.203Z,12.28
2018-05-03T01:02:39.219Z,12.22
2018-05-03T01:03:39.157Z,12.27
2018-05-03T01:04:39.154Z,12.22
2018-05-03T01:05:39.237Z,12.21
2018-05-03T01:06:40.014Z,12.18
2018-05-03T01:07:39.141Z,12.18
2018-05-03T01:08:39.131Z,12.21
2018-05-03T01:09:39.144Z,12.22
2018-05-03T01:10:39.138Z,12.17
2018-05-03T01:11:41.463Z,12.17
2018-05-03T01:12:39.963Z,12.18
2018-05-03T01:13:39.160Z,12.18
2018-05-03T01:14:39.244Z,12.15
2018-05-03T01:15:39.956Z,12.13
2018-05-03T01:16:40.002Z,12.24
2018-05-03T01:17:39.171Z,12.13
2018-05-03T01:18:40.967Z,12.18
2018-05-03T01:19:39.150Z,12.18
2018-05-03T01:20:39.148Z,12.17
2018-05-03T01:21:39.112Z,12.21
2018-05-03T01:22:39.129Z,12.09
2018-05-03T01:23:39.955Z,12.09
2018-05-03T01:24:39.128Z,12.07
2018-05-03T01:25:39.161Z,12.17
2018-05-03T01:26:39.093Z,12.10
2018-05-03T01:27:39.961Z,12.07
2018-05-03T01:28:39.105Z,12.10
2018-05-03T01:29:39.187Z,12.18
2018-05-03T01:30:40.481Z,12.09
2018-05-03T01:31:41.030Z,12.06
2018-05-03T01:32:39.228Z,12.00
2018-05-03T01:33:39.226Z,12.06
2018-05-03T01:34:39.082Z,12.09
2018-05-03T01:35:39.075Z,12.10
2018-05-03T01:36:39.123Z,12.21
2018-05-03T01:37:39.959Z,12.13
2018-05-03T01:38:39.088Z,12.21
2018-05-03T01:39:39.087Z,12.21
2018-05-03T01:40:39.116Z,12.15
2018-05-03T01:41:39.977Z,12.17
2018-05-03T01:42:39.099Z,12.20
2018-05-03T01:43:39.095Z,12.17
2018-05-03T01:44:39.144Z,12.20
2018-05-03T01:45:39.126Z,12.22
2018-05-03T01:46:39.088Z,12.18
2018-05-03T01:47:39.061Z,12.21
2018-05-03T01:48:39.068Z,12.17
2018-05-03T01:49:39.069Z,12.15
2018-05-03T01:50:39.162Z,12.17
2018-05-03T01:51:40.016Z,12.20
2018-05-03T01:52:39.081Z,12.17
2018-05-03T01:53:39.123Z,12.18
2018-05-03T01:54:39.085Z,12.24
2018-05-03T01:55:39.085Z,12.22
2018-05-03T01:56:39.057Z,12.24
2018-05-03T01:57:39.061Z,12.25
2018-05-03T01:58:39.042Z,12.27
2018-05-03T01:59:39.040Z,12.22
2018-05-03T02:00:40.509Z,12.25
2018-05-03T02:01:39.135Z,12.31
2018-05-03T02:02:41.006Z,12.31
2018-05-03T02:03:39.056Z,12.28
2018-05-03T02:04:39.663Z,12.31
2018-05-03T02:05:39.068Z,12.42
2018-05-03T02:06:39.996Z,12.37
2018-05-03T02:07:39.040Z,12.39
2018-05-03T02:08:40.004Z,12.36
2018-05-03T02:09:39.042Z,12.45
2018-05-03T02:10:39.052Z,12.50
2018-05-03T02:11:39.047Z,12.47
2018-05-03T02:12:40.023Z,12.47
2018-05-03T02:13:39.116Z,12.47
2018-05-03T02:14:41.059Z,12.54
2018-05-03T02:15:39.053Z,12.45
2018-05-03T02:16:39.025Z,12.49
2018-05-03T02:17:39.016Z,12.32
2018-05-03T02:18:39.044Z,12.35
2018-05-03T02:19:39.056Z,12.39
2018-05-03T02:20:39.030Z,12.39
2018-05-03T02:21:39.964Z,12.37
2018-05-03T02:22:39.076Z,12.43
2018-05-03T02:23:39.003Z,12.42
2018-05-03T02:24:39.023Z,12.47
2018-05-03T02:25:38.996Z,12.53
2018-05-03T02:26:39.022Z,12.39
2018-05-03T02:27:39.992Z,12.55
2018-05-03T02:28:38.998Z,12.45
2018-05-03T02:29:39.087Z,12.58
2018-05-03T02:30:39.011Z,12.49
2018-05-03T02:31:39.005Z,12.58
2018-05-03T02:32:38.986Z,12.60
2018-05-03T02:33:40.019Z,12.61
2018-05-03T02:34:38.989Z,12.58
2018-05-03T02:35:39.012Z,12.64
2018-05-03T02:36:38.972Z,12.62
2018-05-03T02:37:38.973Z,12.57
2018-05-03T02:38:39.059Z,12.61
2018-05-03T02:39:38.986Z,12.55
2018-05-03T02:40:39.021Z,12.55
2018-05-03T02:41:38.983Z,12.57
2018-05-03T02:42:38.979Z,12.54
2018-05-03T02:43:39.495Z,12.57
2018-05-03T02:44:38.967Z,12.60
2018-05-03T02:45:38.973Z,12.50
2018-05-03T02:46:38.989Z,12.60
2018-05-03T02:47:39.039Z,12.50
2018-05-03T02:48:38.975Z,12.45
2018-05-03T02:49:38.987Z,12.49
2018-05-03T02:50:39.041Z,12.42
2018-05-03T02:51:39.007Z,12.43
2018-05-03T02:52:39.051Z,12.46
2018-05-03T02:53:38.960Z,12.49
2018-05-03T02:54:38.945Z,12.47
2018-05-03T02:55:38.986Z,12.45
2018-05-03T02:56:38.945Z,12.42
2018-05-03T02:57:38.959Z,12.32
2018-05-03T02:58:39.471Z,12.37
2018-05-03T02:59:38.953Z,12.39
2018-05-03T03:00:38.935Z,12.42
2018-05-03T03:01:38.934Z,12.36
2018-05-03T03:02:39.504Z,12.32
2018-05-03T03:03:39.036Z,12.27
2018-05-03T03:04:38.982Z,12.35
2018-05-03T03:05:39.479Z,12.32
2018-05-03T03:06:38.929Z,12.20
2018-05-03T03:07:38.924Z,12.27
2018-05-03T03:08:40.024Z,12.27
2018-05-03T03:09:38.973Z,12.20
2018-05-03T03:10:40.031Z,12.17
2018-05-03T03:11:38.989Z,12.18
2018-05-03T03:12:39.536Z,12.17
2018-05-03T03:13:38.927Z,12.21
2018-05-03T03:14:38.936Z,12.15
2018-05-03T03:15:39.518Z,12.17
2018-05-03T03:16:38.926Z,12.09
2018-05-03T03:17:38.982Z,12.10
2018-05-03T03:18:38.896Z,12.20
2018-05-03T03:19:40.028Z,12.17
2018-05-03T03:20:38.902Z,12.18
2018-05-03T03:21:40.024Z,12.18
2018-05-03T03:22:38.925Z,12.12
2018-05-03T03:23:38.904Z,12.13
2018-05-03T03:24:38.888Z,12.12
2018-05-03T03:25:38.889Z,12.17
2018-05-03T03:26:38.954Z,12.12
2018-05-03T03:27:38.894Z,12.07
2018-05-03T03:28:38.883Z,12.03
2018-05-03T03:29:38.877Z,12.07
2018-05-03T03:30:39.475Z,12.03
2018-05-03T03:31:38.884Z,12.02
2018-05-03T03:32:38.867Z,12.06
2018-05-03T03:33:38.894Z,12.07
2018-05-03T03:34:38.881Z,12.04
2018-05-03T03:35:38.867Z,12.02
2018-05-03T03:36:38.862Z,12.02
2018-05-03T03:37:38.863Z,12.02
2018-05-03T03:38:38.892Z,11.97
2018-05-03T03:39:38.870Z,12.00
2018-05-03T03:40:38.919Z,12.00
2018-05-03T03:41:38.857Z,11.97
2018-05-03T03:42:38.851Z,11.83
2018-05-03T03:43:39.647Z,11.90
2018-05-03T03:44:38.865Z,11.88
2018-05-03T03:45:38.846Z,11.90
2018-05-03T03:46:38.894Z,11.90
2018-05-03T03:47:38.865Z,11.87
2018-05-03T03:48:38.837Z,11.88
2018-05-03T03:49:38.843Z,11.80
2018-05-03T03:50:38.941Z,11.83
2018-05-03T03:51:39.488Z,11.75
2018-05-03T03:52:38.831Z,11.84
2018-05-03T03:53:38.831Z,11.83
2018-05-03T03:54:38.828Z,11.80
2018-05-03T03:55:38.912Z,11.75
2018-05-03T03:56:38.848Z,11.73
2018-05-03T03:57:39.532Z,11.72
2018-05-03T03:58:38.856Z,11.68
2018-05-03T03:59:38.829Z,11.65
2018-05-03T04:00:38.829Z,11.60
2018-05-03T04:01:38.818Z,11.62
2018-05-03T04:02:38.822Z,11.62
2018-05-03T04:03:38.833Z,11.62
2018-05-03T04:04:38.806Z,11.59
2018-05-03T04:05:38.812Z,11.59
2018-05-03T04:06:38.877Z,11.55
2018-05-03T04:07:39.248Z,11.59
2018-05-03T04:08:38.800Z,11.54
2018-05-03T04:09:39.577Z,11.47
2018-05-03T04:10:39.552Z,11.50
2018-05-03T04:11:38.858Z,11.48
2018-05-03T04:12:38.793Z,11.44
2018-05-03T04:13:38.782Z,11.51
2018-05-03T04:14:38.777Z,11.44
2018-05-03T04:15:38.778Z,11.48
2018-05-03T04:16:38.783Z,11.43
2018-05-03T04:17:38.804Z,11.44
2018-05-03T04:18:38.802Z,11.44
2018-05-03T04:19:38.872Z,11.45
2018-05-03T04:20:38.762Z,11.41
2018-05-03T04:21:38.805Z,11.47
2018-05-03T04:22:38.772Z,11.45
2018-05-03T04:23:38.762Z,11.43
2018-05-03T04:24:38.765Z,11.41
2018-05-03T04:25:38.747Z,11.47
2018-05-03T04:26:39.575Z,11.54
2018-05-03T04:27:38.852Z,11.37
2018-05-03T04:28:41.630Z,11.47
2018-05-03T04:29:38.758Z,11.54
2018-05-03T04:30:38.743Z,11.45
2018-05-03T04:31:38.750Z,11.47
2018-05-03T04:32:38.751Z,11.48
2018-05-03T04:33:38.732Z,11.50
2018-05-03T04:34:38.763Z,11.50
2018-05-03T04:35:38.731Z,11.47
2018-05-03T04:36:38.732Z,11.48
2018-05-03T04:37:38.736Z,11.47
2018-05-03T04:38:39.644Z,11.44
2018-05-03T04:39:38.714Z,11.54
2018-05-03T04:40:38.725Z,11.50
2018-05-03T04:41:38.732Z,11.51
2018-05-03T04:42:38.706Z,11.59
2018-05-03T04:43:38.797Z,11.59
2018-05-03T04:44:38.709Z,11.60
2018-05-03T04:45:38.703Z,11.60
2018-05-03T04:46:40.527Z,11.70
2018-05-03T04:47:38.700Z,11.70
2018-05-03T04:48:38.698Z,11.68
2018-05-03T04:49:38.700Z,11.68
2018-05-03T04:50:38.687Z,11.68
2018-05-03T04:51:39.547Z,11.77
2018-05-03T04:52:39.511Z,11.69
2018-05-03T04:53:38.702Z,11.80
2018-05-03T04:54:39.509Z,11.80
2018-05-03T04:55:38.680Z,11.80
2018-05-03T04:56:38.696Z,11.73
2018-05-03T04:57:38.679Z,11.88
2018-05-03T04:58:39.503Z,11.84
2018-05-03T04:59:39.557Z,11.86
2018-05-03T05:00:39.522Z,11.94
2018-05-03T05:01:38.671Z,11.88
2018-05-03T05:02:38.672Z,11.87
2018-05-03T05:03:38.672Z,11.84
2018-05-03T05:04:38.690Z,11.87
2018-05-03T05:05:38.655Z,11.99
2018-05-03T05:06:40.045Z,11.99
2018-05-03T05:07:38.656Z,12.03
2018-05-03T05:08:38.703Z,12.03
2018-05-03T05:09:39.558Z,12.03
2018-05-03T05:10:39.505Z,12.12
2018-05-03T05:11:38.700Z,12.07
2018-05-03T05:12:40.570Z,12.12
2018-05-03T05:13:39.668Z,12.18
2018-05-03T05:14:38.635Z,12.21
2018-05-03T05:15:38.638Z,12.15
2018-05-03T05:16:38.638Z,12.20
2018-05-03T05:17:39.558Z,12.22
2018-05-03T05:18:38.638Z,12.32
2018-05-03T05:19:39.525Z,12.37
2018-05-03T05:20:38.699Z,12.39
2018-05-03T05:21:38.642Z,12.42
2018-05-03T05:22:38.632Z,12.47
2018-05-03T05:23:39.554Z,12.49
2018-05-03T05:24:39.561Z,12.57
2018-05-03T05:25:38.634Z,12.54
2018-05-03T05:26:38.706Z,12.60
2018-05-03T05:27:38.651Z,12.55
2018-05-03T05:28:38.605Z,12.62
2018-05-03T05:29:38.611Z,12.62
2018-05-03T05:30:38.619Z,12.65
2018-05-03T05:31:38.694Z,12.70
2018-05-03T05:32:38.602Z,12.83
2018-05-03T05:33:39.507Z,12.78
2018-05-03T05:34:39.510Z,12.78
2018-05-03T05:35:38.875Z,12.82
2018-05-03T05:36:38.700Z,12.85
2018-05-03T05:37:38.612Z,12.94
2018-05-03T05:38:38.777Z,12.90
2018-05-03T05:39:38.604Z,12.97
2018-05-03T05:40:38.623Z,13.00
2018-05-03T05:41:38.607Z,13.05
2018-05-03T05:42:38.684Z,13.15
2018-05-03T05:43:38.582Z,13.08
2018-05-03T05:44:39.509Z,13.22
2018-05-03T05:45:38.590Z,13.38
2018-05-03T05:46:38.642Z,13.37
2018-05-03T05:47:38.603Z,13.52
2018-05-03T05:48:38.633Z,13.46
2018-05-03T05:49:38.707Z,13.50
2018-05-03T05:50:40.057Z,13.54
2018-05-03T05:51:38.669Z,13.59
2018-05-03T05:52:38.714Z,13.68
2018-05-03T05:53:38.649Z,13.75
2018-05-03T05:54:38.660Z,13.83
2018-05-03T05:55:39.556Z,13.79
2018-05-03T05:56:38.626Z,13.79
2018-05-03T05:57:38.672Z,13.97
2018-05-03T05:58:38.641Z,13.96
2018-05-03T05:59:38.611Z,13.95
2018-05-03T06:00:39.519Z,14.04
2018-05-03T06:01:38.647Z,14.12
2018-05-03T06:02:38.660Z,14.11
2018-05-03T06:03:38.634Z,14.10
2018-05-03T06:04:38.633Z,14.25
2018-05-03T06:05:38.655Z,14.26
2018-05-03T06:06:38.653Z,14.20
2018-05-03T06:07:39.508Z,14.26
2018-05-03T06:08:38.566Z,14.43
2018-05-03T06:09:38.638Z,14.37
2018-05-03T06:10:38.770Z,14.44
2018-05-03T06:11:38.645Z,14.54
2018-05-03T06:12:40.023Z,14.48
2018-05-03T06:13:39.531Z,14.59
2018-05-03T06:14:40.061Z,14.51
2018-05-03T06:15:40.054Z,14.54
2018-05-03T06:16:38.617Z,14.60
2018-05-03T06:17:38.634Z,14.63
2018-05-03T06:18:39.562Z,14.70
2018-05-03T06:19:40.043Z,14.72
2018-05-03T06:20:39.569Z,14.82
2018-05-03T06:21:39.562Z,14.84
2018-05-03T06:22:40.153Z,14.92
2018-05-03T06:23:38.587Z,14.91
2018-05-03T06:24:38.658Z,15.04
2018-05-03T06:25:39.525Z,15.02
2018-05-03T06:26:40.064Z,15.07
2018-05-03T06:27:40.064Z,15.24
2018-05-03T06:28:39.516Z,15.24
2018-05-03T06:29:42.038Z,15.25
2018-05-03T06:30:40.021Z,15.22
2018-05-03T06:33:11.077Z,15.31
